createdAt,value
2023-03-26T00:00:56.840Z,2.57
2023-03-26T00:04:00.438Z,2.10
2023-03-26T00:07:03.806Z,3.37
2023-03-26T00:10:07.693Z,2.37
2023-03-26T00:13:11.713Z,2.97
2023-03-26T00:16:18.342Z,2.37
2023-03-26T00:19:22.650Z,2.22
2023-03-26T00:22:26.805Z,6.57
2023-03-26T00:25:32.099Z,3.77
2023-03-26T00:28:36.079Z,2.70
2023-03-26T00:31:46.437Z,1.85
2023-03-26T00:34:52.075Z,2.40
2023-03-26T00:37:55.748Z,2.63
2023-03-26T00:41:06.279Z,2.25
2023-03-26T00:44:09.682Z,3.50
2023-03-26T00:47:13.443Z,1.20
2023-03-26T00:50:17.666Z,2.23
2023-03-26T00:53:22.658Z,3.53
2023-03-26T00:56:26.707Z,2.62
2023-03-26T00:59:30.613Z,4.30
2023-03-26T01:02:34.191Z,2.07
2023-03-26T01:05:49.068Z,1.25
2023-03-26T01:08:54.789Z,3.08
2023-03-26T01:11:58.214Z,1.92
2023-03-26T01:15:04.132Z,2.03
2023-03-26T01:18:09.995Z,1.98
2023-03-26T01:21:14.703Z,2.10
2023-03-26T01:24:19.439Z,2.65
2023-03-26T01:27:35.918Z,2.13
2023-03-26T01:30:45.574Z,2.25
2023-03-26T01:34:05.279Z,2.08
2023-03-26T01:37:27.372Z,1.70
2023-03-26T01:40:43.049Z,2.20
2023-03-26T01:44:07.193Z,3.28
2023-03-26T01:47:12.944Z,3.05
2023-03-26T01:50:16.620Z,2.27
2023-03-26T01:53:20.117Z,2.50
2023-03-26T01:56:42.128Z,2.40
2023-03-26T02:00:06.901Z,2.28
2023-03-26T02:03:30.814Z,4.23
2023-03-26T02:06:46.400Z,2.97
2023-03-26T02:09:55.503Z,5.47
2023-03-26T02:12:59.324Z,6.53
2023-03-26T02:16:05.878Z,3.50
2023-03-26T02:19:15.711Z,4.07
2023-03-26T02:22:19.472Z,2.17
2023-03-26T02:25:22.588Z,1.77
2023-03-26T02:28:26.831Z,1.70
2023-03-26T02:31:30.404Z,2.30
2023-03-26T02:34:34.282Z,2.62
2023-03-26T02:37:38.393Z,3.30
2023-03-26T02:40:44.137Z,2.75
2023-03-26T02:43:47.623Z,3.90
2023-03-26T02:46:51.560Z,2.10
2023-03-26T02:49:56.007Z,3.22
2023-03-26T02:53:00.890Z,3.92
2023-03-26T02:56:05.777Z,3.55
2023-03-26T02:59:12.067Z,1.73
2023-03-26T03:02:18.524Z,2.90
2023-03-26T03:05:26.637Z,4.22
2023-03-26T03:08:30.499Z,3.73
2023-03-26T03:11:36.038Z,7.70
2023-03-26T03:14:40.941Z,3.03
2023-03-26T03:17:46.251Z,3.42
2023-03-26T03:20:50.977Z,3.87
2023-03-26T03:24:00.232Z,2.35
2023-03-26T03:27:04.264Z,8.23
2023-03-26T03:30:09.564Z,4.00
2023-03-26T03:33:14.526Z,4.20
2023-03-26T03:36:22.133Z,4.07
2023-03-26T03:39:26.301Z,8.35
2023-03-26T03:42:30.898Z,9.65
2023-03-26T03:45:34.266Z,8.82
2023-03-26T03:48:39.245Z,10.95
2023-03-26T03:51:43.991Z,8.47
2023-03-26T03:54:48.647Z,6.90
2023-03-26T03:57:52.754Z,5.20
2023-03-26T04:01:00.984Z,5.43
2023-03-26T04:04:06.527Z,5.12
2023-03-26T04:07:13.560Z,4.60
2023-03-26T04:10:18.039Z,4.10
2023-03-26T04:13:24.221Z,4.43
2023-03-26T04:16:29.171Z,4.65
2023-03-26T04:19:34.008Z,5.03
2023-03-26T04:22:41.222Z,8.03
2023-03-26T04:25:50.634Z,4.62
2023-03-26T04:28:59.991Z,5.70
2023-03-26T04:32:07.158Z,6.70
2023-03-26T04:35:16.497Z,4.47
2023-03-26T04:38:20.648Z,4.97
2023-03-26T04:41:27.770Z,5.03
2023-03-26T04:44:31.957Z,5.07
2023-03-26T04:47:37.274Z,4.32
2023-03-26T04:50:49.391Z,35.20
2023-03-26T04:54:00.618Z,17.63
2023-03-26T04:57:09.332Z,17.52
2023-03-26T05:00:17.694Z,15.52
2023-03-26T05:03:21.828Z,9.33
2023-03-26T05:06:28.922Z,11.12
2023-03-26T05:09:32.241Z,7.87
2023-03-26T05:12:38.122Z,7.68
2023-03-26T05:15:41.701Z,7.80
2023-03-26T05:18:46.830Z,6.43
2023-03-26T05:21:50.355Z,5.47
2023-03-26T05:24:53.844Z,5.27
2023-03-26T05:27:57.125Z,6.43
2023-03-26T05:31:01.387Z,4.32
2023-03-26T05:34:05.040Z,4.43
2023-03-26T05:37:12.381Z,4.85
2023-03-26T05:40:17.248Z,6.22
2023-03-26T05:43:21.242Z,5.57
2023-03-26T05:46:26.646Z,5.22
2023-03-26T05:49:30.274Z,4.22
2023-03-26T05:52:34.266Z,5.62
2023-03-26T05:55:50.663Z,4.27
2023-03-26T05:59:02.301Z,8.23
2023-03-26T06:02:09.509Z,3.87
2023-03-26T06:05:16.764Z,6.65
2023-03-26T06:08:22.112Z,3.03
2023-03-26T06:11:26.031Z,5.95
2023-03-26T06:14:29.134Z,3.78
2023-03-26T06:17:34.527Z,3.97
2023-03-26T06:20:42.692Z,3.55
2023-03-26T06:23:50.223Z,4.00
2023-03-26T06:26:53.659Z,6.10
2023-03-26T06:29:57.281Z,3.55
2023-03-26T06:33:01.236Z,4.90
2023-03-26T06:36:05.568Z,2.23
2023-03-26T06:39:08.915Z,3.75
2023-03-26T06:42:13.209Z,4.93
2023-03-26T06:45:17.339Z,6.30
2023-03-26T06:48:25.740Z,2.67
2023-03-26T06:51:31.592Z,3.57
2023-03-26T06:54:38.648Z,3.03
2023-03-26T06:57:45.361Z,4.28
2023-03-26T07:00:54.517Z,4.40
2023-03-26T07:04:01.244Z,3.50
2023-03-26T07:07:14.837Z,2.23
2023-03-26T07:10:20.543Z,10.73
2023-03-26T07:13:24.606Z,4.50
2023-03-26T07:16:30.295Z,3.20
2023-03-26T07:19:35.249Z,3.47
2023-03-26T07:22:39.226Z,2.83
2023-03-26T07:25:44.133Z,3.42
2023-03-26T07:29:12.807Z,1.90
2023-03-26T07:32:22.398Z,4.05
2023-03-26T07:35:48.997Z,1.83
2023-03-26T07:39:33.156Z,3.17
2023-03-26T07:43:09.388Z,3.85
2023-03-26T07:46:15.565Z,2.60
2023-03-26T07:49:20.803Z,3.00
2023-03-26T07:52:27.721Z,3.77
2023-03-26T07:55:31.662Z,2.40
2023-03-26T07:58:53.129Z,3.92
2023-03-26T08:02:21.441Z,4.10
2023-03-26T08:05:56.468Z,3.50
2023-03-26T08:09:22.898Z,3.00
2023-03-26T08:12:36.849Z,3.60
2023-03-26T08:15:57.859Z,5.47
2023-03-26T08:19:51.979Z,3.58
2023-03-26T08:23:02.417Z,5.75
2023-03-26T08:26:13.819Z,2.47
2023-03-26T08:29:34.767Z,4.17
2023-03-26T08:32:39.258Z,2.42
2023-03-26T08:35:43.204Z,2.65
2023-03-26T08:38:47.000Z,5.05
2023-03-26T08:41:58.981Z,5.87
2023-03-26T08:45:17.640Z,4.83
2023-03-26T08:49:01.522Z,4.97
2023-03-26T08:52:14.134Z,2.95
2023-03-26T08:55:26.253Z,4.07
2023-03-26T08:58:53.117Z,4.47
2023-03-26T09:02:08.897Z,3.53
2023-03-26T09:06:08.709Z,2.50
2023-03-26T09:09:49.442Z,4.90
2023-03-26T09:13:17.000Z,5.82
2023-03-26T09:16:26.592Z,5.23
2023-03-26T09:19:48.844Z,3.67
2023-03-26T09:23:07.166Z,4.47
2023-03-26T09:26:26.273Z,4.10
2023-03-26T09:30:07.136Z,5.68
2023-03-26T09:33:32.938Z,4.10
2023-03-26T09:36:49.590Z,4.87
2023-03-26T09:40:08.183Z,3.00
2023-03-26T09:43:36.926Z,7.68
2023-03-26T09:47:20.032Z,5.25
2023-03-26T09:50:35.241Z,5.83
2023-03-26T09:54:06.331Z,5.40
2023-03-26T09:57:22.913Z,4.57
2023-03-26T10:00:42.181Z,4.45
2023-03-26T10:04:24.493Z,6.50
2023-03-26T10:07:53.554Z,3.10
2023-03-26T10:10:59.686Z,4.93
2023-03-26T10:14:11.688Z,11.93
2023-03-26T10:17:32.065Z,7.95
2023-03-26T10:21:01.525Z,4.32
2023-03-26T10:24:34.730Z,5.03
2023-03-26T10:27:47.939Z,3.37
2023-03-26T10:31:06.248Z,3.70
2023-03-26T10:34:19.430Z,4.32
2023-03-26T10:37:51.689Z,5.10
2023-03-26T10:41:09.097Z,4.57
2023-03-26T10:44:31.830Z,3.83
2023-03-26T10:47:41.105Z,13.48
2023-03-26T10:51:06.442Z,16.58
2023-03-26T10:54:31.524Z,10.07
2023-03-26T10:57:46.368Z,6.43
2023-03-26T11:01:02.583Z,4.27
2023-03-26T11:04:44.886Z,4.80
2023-03-26T11:08:13.772Z,3.42
2023-03-26T11:11:23.417Z,4.55
2023-03-26T11:14:35.297Z,5.03
2023-03-26T11:18:00.450Z,7.40
2023-03-26T11:21:19.771Z,4.43
2023-03-26T11:24:57.665Z,4.22
2023-03-26T11:28:23.836Z,3.97
2023-03-26T11:31:45.728Z,2.97
2023-03-26T11:35:09.502Z,5.07
2023-03-26T11:38:20.998Z,2.70
2023-03-26T11:41:27.500Z,4.07
2023-03-26T11:44:39.629Z,3.33
2023-03-26T11:48:13.957Z,2.97
2023-03-26T11:51:25.905Z,4.17
2023-03-26T11:54:29.728Z,4.40
2023-03-26T11:57:36.305Z,2.97
2023-03-26T12:00:40.577Z,5.57
2023-03-26T12:03:57.615Z,3.23
2023-03-26T12:07:16.642Z,10.37
2023-03-26T12:10:26.497Z,3.60
2023-03-26T12:13:43.575Z,2.60
2023-03-26T12:17:14.456Z,4.45
2023-03-26T12:20:26.899Z,3.00
2023-03-26T12:23:46.027Z,3.00
2023-03-26T12:26:58.324Z,5.75
2023-03-26T12:30:22.497Z,2.95
2023-03-26T12:33:29.678Z,2.72
2023-03-26T12:36:35.995Z,2.70
2023-03-26T12:40:10.129Z,3.70
2023-03-26T12:44:55.972Z,4.40
2023-03-26T12:47:57.381Z,5.78
2023-03-26T12:50:42.849Z,5.93
2023-03-26T12:53:59.047Z,6.93
2023-03-26T12:57:22.826Z,3.77
2023-03-26T13:00:26.492Z,5.03
2023-03-26T13:03:51.742Z,3.50
2023-03-26T13:07:02.623Z,3.33
2023-03-26T13:10:57.683Z,4.10
2023-03-26T13:14:39.240Z,4.37
2023-03-26T13:18:02.503Z,2.60
2023-03-26T13:21:34.064Z,2.33
2023-03-26T13:24:49.474Z,4.57
2023-03-26T13:28:31.921Z,12.87
2023-03-26T13:32:05.598Z,4.20
2023-03-26T13:35:24.690Z,5.43
2023-03-26T13:38:58.960Z,6.07
2023-03-26T13:42:18.888Z,4.65
2023-03-26T13:45:54.595Z,4.33
2023-03-26T13:49:09.561Z,6.63
2023-03-26T13:52:19.315Z,3.67
2023-03-26T13:55:27.339Z,2.60
2023-03-26T13:59:09.589Z,5.35
2023-03-26T14:02:43.319Z,9.60
2023-03-26T14:05:51.979Z,5.60
2023-03-26T14:09:10.773Z,3.78
2023-03-26T14:12:39.228Z,5.05
2023-03-26T14:15:55.414Z,9.50
2023-03-26T14:19:25.045Z,5.67
2023-03-26T14:23:03.913Z,10.23
2023-03-26T14:26:42.812Z,1.67
2023-03-26T14:30:12.761Z,3.60
2023-03-26T14:33:28.501Z,1.83
2023-03-26T14:36:47.065Z,3.63
2023-03-26T14:40:23.594Z,2.30
2023-03-26T14:44:15.658Z,2.30
2023-03-26T14:47:23.001Z,2.22
2023-03-26T14:50:47.247Z,1.37
2023-03-26T14:54:01.025Z,2.53
2023-03-26T14:57:21.753Z,2.90
2023-03-26T15:00:56.278Z,2.28
2023-03-26T15:04:26.897Z,3.55
2023-03-26T15:07:53.444Z,2.47
2023-03-26T15:11:46.521Z,2.50
2023-03-26T15:15:31.306Z,2.67
2023-03-26T15:18:45.275Z,3.20
2023-03-26T15:22:15.769Z,2.85
2023-03-26T15:25:42.011Z,3.42
2023-03-26T15:29:04.015Z,1.70
2023-03-26T15:32:30.375Z,1.73
2023-03-26T15:35:46.228Z,2.87
2023-03-26T15:39:21.110Z,3.22
2023-03-26T15:42:38.283Z,2.78
2023-03-26T15:46:04.319Z,4.03
2023-03-26T15:49:40.411Z,3.57
2023-03-26T15:53:04.283Z,3.30
2023-03-26T15:56:17.861Z,2.08
2023-03-26T15:59:43.321Z,2.78
2023-03-26T16:02:53.980Z,3.03
2023-03-26T16:06:16.275Z,2.80
2023-03-26T16:09:40.430Z,4.62
2023-03-26T16:13:17.522Z,2.78
2023-03-26T16:16:25.800Z,5.12
2023-03-26T16:19:52.198Z,5.30
2023-03-26T16:23:17.047Z,3.70
2023-03-26T16:26:47.193Z,4.20
2023-03-26T16:30:02.016Z,3.45
2023-03-26T16:33:21.402Z,4.35
2023-03-26T16:36:35.239Z,4.27
2023-03-26T16:39:41.381Z,2.43
2023-03-26T16:43:25.750Z,8.18
2023-03-26T16:47:05.665Z,9.20
2023-03-26T16:50:12.380Z,20.27
2023-03-26T16:53:27.182Z,20.50
2023-03-26T16:56:49.895Z,15.77
2023-03-26T17:00:19.640Z,17.75
2023-03-26T17:03:48.878Z,18.17
2023-03-26T17:06:57.449Z,16.87
2023-03-26T17:10:31.741Z,21.47
2023-03-26T17:14:16.541Z,15.43
2023-03-26T17:17:47.391Z,9.23
2023-03-26T17:21:24.094Z,7.37
2023-03-26T17:24:33.709Z,9.10
2023-03-26T17:27:53.459Z,5.00
2023-03-26T17:31:36.999Z,10.13
2023-03-26T17:34:51.571Z,9.20
2023-03-26T17:37:58.770Z,6.85
2023-03-26T17:41:05.508Z,12.48
2023-03-26T17:44:43.544Z,10.77
2023-03-26T17:47:59.904Z,10.80
2023-03-26T17:51:43.018Z,10.27
2023-03-26T17:54:52.760Z,14.65
2023-03-26T17:58:05.118Z,14.13
2023-03-26T18:01:38.601Z,13.33
2023-03-26T18:04:48.514Z,10.67
2023-03-26T18:08:24.642Z,10.48
2023-03-26T18:12:02.038Z,10.23
2023-03-26T18:15:14.933Z,10.02
2023-03-26T18:18:23.676Z,10.77
2023-03-26T18:21:52.829Z,9.03
2023-03-26T18:25:00.465Z,8.38
2023-03-26T18:28:06.562Z,8.63
2023-03-26T18:31:32.249Z,8.80
2023-03-26T18:34:40.482Z,13.13
2023-03-26T18:37:46.264Z,16.83
2023-03-26T18:40:56.533Z,12.40
2023-03-26T18:44:12.243Z,15.02
2023-03-26T18:47:16.899Z,10.60
2023-03-26T18:50:43.670Z,8.70
2023-03-26T18:53:52.713Z,7.80
2023-03-26T18:56:59.686Z,7.62
2023-03-26T19:00:19.398Z,6.35
2023-03-26T19:03:26.675Z,7.03
2023-03-26T19:06:39.009Z,7.27
2023-03-26T19:09:44.645Z,7.63
2023-03-26T19:13:00.218Z,7.35
2023-03-26T19:16:34.457Z,10.50
2023-03-26T19:19:39.178Z,8.77
2023-03-26T19:22:46.930Z,8.90
2023-03-26T19:26:00.204Z,9.03
2023-03-26T19:29:06.316Z,10.25
2023-03-26T19:32:20.367Z,9.70
2023-03-26T19:35:25.953Z,13.27
2023-03-26T19:38:39.566Z,9.23
2023-03-26T19:41:50.988Z,8.60
2023-03-26T19:44:58.930Z,8.88
2023-03-26T19:48:15.298Z,8.68
2023-03-26T19:51:23.925Z,6.78
2023-03-26T19:54:33.793Z,6.83
2023-03-26T19:57:38.539Z,12.70
2023-03-26T20:00:46.145Z,7.47
2023-03-26T20:03:58.365Z,7.43
2023-03-26T20:07:03.046Z,7.12
2023-03-26T20:10:11.405Z,6.40
2023-03-26T20:13:18.588Z,6.73
2023-03-26T20:16:27.667Z,6.03
2023-03-26T20:19:32.215Z,4.95
2023-03-26T20:22:36.842Z,7.97
2023-03-26T20:25:50.188Z,7.23
2023-03-26T20:28:55.268Z,6.57
2023-03-26T20:31:59.973Z,6.47
2023-03-26T20:35:35.867Z,7.03
2023-03-26T20:38:44.777Z,6.72
2023-03-26T20:41:50.854Z,6.93
2023-03-26T20:44:58.828Z,5.17
2023-03-26T20:48:04.150Z,6.30
2023-03-26T20:51:15.663Z,6.05
2023-03-26T20:54:24.030Z,5.75
2023-03-26T20:57:27.558Z,8.00
2023-03-26T21:00:32.759Z,7.35
2023-03-26T21:03:36.138Z,5.37
2023-03-26T21:06:43.952Z,5.32
2023-03-26T21:09:48.861Z,5.22
2023-03-26T21:13:11.318Z,5.73
2023-03-26T21:16:15.011Z,6.17
2023-03-26T21:19:19.365Z,6.62
2023-03-26T21:22:25.985Z,5.82
2023-03-26T21:25:45.535Z,5.62
2023-03-26T21:28:50.531Z,3.80
2023-03-26T21:31:56.028Z,3.77
2023-03-26T21:34:59.718Z,2.50
2023-03-26T21:38:04.701Z,2.75
2023-03-26T21:41:25.340Z,2.30
2023-03-26T21:44:29.267Z,2.37
2023-03-26T21:47:32.765Z,2.77
2023-03-26T21:50:37.098Z,3.25
2023-03-26T21:53:41.730Z,3.37
2023-03-26T21:56:53.177Z,2.85
2023-03-26T22:00:25.735Z,4.37
2023-03-26T22:03:38.525Z,2.25
2023-03-26T22:06:49.245Z,1.77
2023-03-26T22:09:53.070Z,1.40
2023-03-26T22:12:56.523Z,2.58
2023-03-26T22:16:00.267Z,2.40
2023-03-26T22:19:03.455Z,2.55
2023-03-26T22:22:06.855Z,3.62
2023-03-26T22:25:10.580Z,2.75
2023-03-26T22:28:13.977Z,5.28
2023-03-26T22:31:17.742Z,5.03
2023-03-26T22:34:23.214Z,3.67
2023-03-26T22:37:26.439Z,4.03
2023-03-26T22:40:30.895Z,3.97
2023-03-26T22:43:34.486Z,3.58
2023-03-26T22:46:38.908Z,4.63
2023-03-26T22:49:42.089Z,3.58
2023-03-26T22:52:45.916Z,3.45
2023-03-26T22:55:49.025Z,2.95
2023-03-26T22:58:52.848Z,4.25
2023-03-26T23:01:56.808Z,2.53
2023-03-26T23:05:00.519Z,3.35
2023-03-26T23:08:04.195Z,2.92
2023-03-26T23:11:13.243Z,2.50
2023-03-26T23:14:16.733Z,2.60
2023-03-26T23:17:20.234Z,2.43
2023-03-26T23:20:24.064Z,2.50
2023-03-26T23:23:31.026Z,2.65
2023-03-26T23:26:43.872Z,3.60
2023-03-26T23:29:53.558Z,3.97
2023-03-26T23:32:57.410Z,3.40
2023-03-26T23:36:07.243Z,2.90
2023-03-26T23:39:10.999Z,4.25
2023-03-26T23:42:28.750Z,3.67
2023-03-26T23:45:33.570Z,4.68
2023-03-26T23:48:37.859Z,3.23
2023-03-26T23:51:42.223Z,2.95
2023-03-26T23:54:47.454Z,3.00
2023-03-26T23:57:51.733Z,3.03
